Time;durP1;ratioP1;P1;durP2;ratioP2;P2;SDS_P1;SDS_P2;PMS_P1;PMS_P2;Temp;Humidity;BMP_temperature;BMP_pressure;BME280_temperature;BME280_humidity;BME280_pressure;Samples;Min_cycle;Max_cycle;Signal;HPM_P1;HPM_P2
2022/09/01 00:00:10;;;;;;;9.07;4.30;;;;;;;12.01;66.79;99220.41;5073998;28;20412;-76
2022/09/01 00:02:37;;;;;;;9.18;4.75;;;;;;;11.95;66.91;99210.88;5074132;28;20143;-77
2022/09/01 00:05:06;;;;;;;10.63;5.05;;;;;;;11.96;67.14;99210.00;5074130;28;20051;-76
2022/09/01 00:07:34;;;;;;;11.15;5.53;;;;;;;11.90;67.60;99207.47;5074135;28;20143;-76
2022/09/01 00:10:06;;;;;;;10.73;5.25;;;;;;;11.90;67.62;99215.31;5074184;28;20086;-76
2022/09/01 00:12:34;;;;;;;10.70;5.55;;;;;;;11.87;67.74;99217.91;5074043;28;20052;-76
2022/09/01 00:15:01;;;;;;;12.75;5.03;;;;;;;11.68;67.93;99183.28;5073853;28;20056;-76
2022/09/01 00:17:30;;;;;;;9.68;3.70;;;;;;;11.83;68.14;99221.44;5073940;28;20079;-76
2022/09/01 00:19:57;;;;;;;12.55;3.80;;;;;;;11.69;68.27;99209.41;5073533;28;20052;-76
2022/09/01 00:22:24;;;;;;;10.32;3.40;;;;;;;11.77;68.44;99225.03;5073699;28;20080;-75
2022/09/01 00:24:51;;;;;;;5.78;2.40;;;;;;;11.76;68.55;99228.50;5073692;28;20079;-76
2022/09/01 00:27:19;;;;;;;5.95;2.13;;;;;;;11.71;68.37;99234.69;5073824;28;20053;-75
2022/09/01 00:29:53;;;;;;;5.70;1.88;;;;;;;11.71;68.80;99232.06;5073261;28;20432;-75
2022/09/01 00:32:20;;;;;;;4.07;1.30;;;;;;;11.69;68.99;99222.47;5073540;28;20048;-76
2022/09/01 00:34:47;;;;;;;2.05;1.33;;;;;;;11.69;68.93;99229.47;5080082;28;20076;-75
2022/09/01 00:37:14;;;;;;;1.98;1.40;;;;;;;11.64;68.62;99220.81;5088993;28;20163;-77
2022/09/01 00:39:41;;;;;;;1.77;1.10;;;;;;;11.58;69.29;99220.88;5087732;28;20056;-75
2022/09/01 00:42:08;;;;;;;3.13;1.35;;;;;;;11.36;69.44;99194.97;5076701;28;20049;-75
2022/09/01 00:44:37;;;;;;;1.60;1.30;;;;;;;10.93;69.76;99131.78;5073584;28;20048;-75
2022/09/01 00:47:05;;;;;;;0.98;0.90;;;;;;;11.37;69.97;99225.44;5073530;28;20052;-76
2022/09/01 00:49:44;;;;;;;1.50;1.05;;;;;;;11.34;70.08;99208.94;5073279;28;20055;-75
2022/09/01 00:52:28;;;;;;;4.25;1.60;;;;;;;11.25;70.03;99209.91;5055836;28;20142;-77
2022/09/01 00:54:58;;;;;;;4.88;1.20;;;;;;;11.24;70.54;99209.00;5073097;28;20056;-76
2022/09/01 00:57:26;;;;;;;6.22;1.88;;;;;;;11.14;70.94;99207.38;5055303;28;20096;-76
2022/09/01 01:00:04;;;;;;;5.30;1.52;;;;;;;11.24;70.49;99213.38;5072901;28;20151;-76
2022/09/01 01:02:32;;;;;;;3.90;1.30;;;;;;;11.23;70.76;99212.50;5053793;28;20056;-76
2022/09/01 01:04:59;;;;;;;3.60;1.20;;;;;;;11.19;71.04;99216.03;5072663;28;20044;-77
2022/09/01 01:07:27;;;;;;;5.38;1.40;;;;;;;11.20;70.94;99222.97;5055384;28;20048;-76
2022/09/01 01:09:55;;;;;;;2.00;1.13;;;;;;;11.18;71.07;99213.44;5072675;28;20083;-75
2022/09/01 01:12:22;;;;;;;2.55;1.38;;;;;;;11.15;71.17;99216.09;5072844;28;20074;-76
2022/09/01 01:14:50;;;;;;;2.35;1.23;;;;;;;11.12;71.01;99208.25;5072684;28;20063;-76
2022/09/01 01:17:20;;;;;;;3.65;1.80;;;;;;;11.03;71.23;99199.63;5054955;28;20053;-75
2022/09/01 01:23:01;;;;;;;3.40;1.60;;;;;;;11.01;71.16;99218.81;5072401;28;20500;-76
2022/09/01 01:25:37;;;;;;;2.00;1.15;;;;;;;11.12;70.95;99226.53;5054850;28;20182;-75
2022/09/01 01:28:06;;;;;;;2.78;1.40;;;;;;;11.27;70.59;99219.44;5071499;28;20058;-75
2022/09/01 01:30:35;;;;;;;2.42;1.48;;;;;;;11.28;70.30;99195.03;5070873;28;20052;-75
2022/09/01 01:33:04;;;;;;;2.50;1.23;;;;;;;11.47;69.53;99219.25;5054599;28;20128;-74
2022/09/01 01:35:32;;;;;;;3.50;1.55;;;;;;;11.51;69.57;99214.84;5054627;28;20232;-76
2022/09/01 01:38:01;;;;;;;4.85;1.85;;;;;;;11.33;69.06;99186.28;5054633;28;20052;-75
2022/09/01 01:40:29;;;;;;;4.00;1.67;;;;;;;11.39;69.74;99189.69;5072509;28;20094;-75
2022/09/01 01:42:59;;;;;;;5.15;1.42;;;;;;;11.27;69.80;99206.38;5072398;28;20049;-75
2022/09/01 01:45:28;;;;;;;2.83;1.52;;;;;;;11.21;70.23;99202.97;5054729;28;20496;-75
2022/09/01 01:47:57;;;;;;;1.75;1.40;;;;;;;11.13;70.64;99200.41;5054613;28;20139;-75
2022/09/01 01:50:29;;;;;;;4.47;1.55;;;;;;;11.03;71.06;99180.44;5072308;28;20451;-76
2022/09/01 01:53:01;;;;;;;2.13;1.45;;;;;;;11.03;70.64;99196.13;5072542;28;20063;-75
2022/09/01 01:55:38;;;;;;;2.15;1.63;;;;;;;11.12;70.97;99210.88;5054696;28;20053;-76
2022/09/01 01:58:10;;;;;;;4.00;1.92;;;;;;;11.25;70.43;99202.06;5054905;28;20056;-76
2022/09/01 02:00:43;;;;;;;1.80;1.70;;;;;;;11.37;70.00;99211.50;5052487;28;20416;-75
2022/09/01 02:03:17;;;;;;;2.85;1.80;;;;;;;11.41;69.63;99210.59;5052453;28;20056;-74
2022/09/01 02:05:47;;;;;;;5.47;1.60;;;;;;;11.39;69.75;99213.22;5067819;28;20059;-75
2022/09/01 02:08:20;;;;;;;6.18;1.90;;;;;;;11.36;69.79;99230.72;5051324;28;20057;-75
2022/09/01 02:10:51;;;;;;;4.00;1.65;;;;;;;11.19;69.74;99186.41;5051211;28;20080;-76
2022/09/01 02:13:29;;;;;;;4.43;1.80;;;;;;;11.14;70.69;99196.94;5051496;28;20048;-75
2022/09/01 02:16:06;;;;;;;4.28;1.40;;;;;;;11.01;71.21;99196.16;5052311;28;20505;-76
2022/09/01 02:18:37;;;;;;;9.85;2.03;;;;;;;10.98;70.98;99205.78;5051254;28;20056;-76
2022/09/01 02:21:08;;;;;;;4.28;1.50;;;;;;;10.90;71.46;99203.22;5052346;28;20052;-76
2022/09/01 02:23:41;;;;;;;1.50;1.40;;;;;;;10.93;71.32;99207.56;5052448;28;20060;-75
2022/09/01 02:26:10;;;;;;;1.30;1.20;;;;;;;10.93;71.40;99204.97;5050899;28;20106;-75
2022/09/01 02:28:48;;;;;;;2.38;1.50;;;;;;;10.91;71.44;99211.94;5051692;28;20441;-76
2022/09/01 02:31:26;;;;;;;3.30;1.70;;;;;;;10.85;71.64;99199.78;5052434;28;20053;-75
2022/09/01 02:33:57;;;;;;;4.22;1.65;;;;;;;10.85;71.59;99216.31;5067488;28;20139;-75
2022/09/01 02:36:24;;;;;;;5.22;1.67;;;;;;;10.92;71.17;99217.13;5052013;28;20523;-75
2022/09/01 02:38:53;;;;;;;3.72;1.70;;;;;;;10.87;70.89;99187.56;5050655;28;20143;-75
2022/09/01 02:41:26;;;;;;;3.38;1.92;;;;;;;10.97;71.07;99209.25;5051913;28;20178;-74
2022/09/01 02:43:53;;;;;;;2.10;1.38;;;;;;;10.94;70.92;99210.16;5053918;28;20049;-75
2022/09/01 02:46:22;;;;;;;5.05;1.67;;;;;;;10.93;70.47;99218.03;5054600;28;20111;-75
2022/09/01 02:48:52;;;;;;;2.03;1.85;;;;;;;10.89;71.23;99208.47;5037387;28;20044;-75
2022/09/01 02:51:24;;;;;;;2.30;1.50;;;;;;;10.86;71.09;99210.22;5054372;28;20500;-76
2022/09/01 02:53:52;;;;;;;1.85;1.60;;;;;;;10.89;71.11;99211.09;5071142;28;20049;-76
2022/09/01 02:56:22;;;;;;;8.95;1.63;;;;;;;10.91;70.79;99223.25;5054791;28;20079;-75
2022/09/01 02:58:54;;;;;;;2.10;1.80;;;;;;;10.95;70.82;99209.28;5057625;28;20088;-76
2022/09/01 03:01:30;;;;;;;4.03;1.58;;;;;;;11.03;70.36;99223.16;5057140;28;20508;-76
2022/09/01 03:04:04;;;;;;;2.88;1.92;;;;;;;11.24;69.91;99222.06;5075672;28;20132;-76
2022/09/01 03:06:33;;;;;;;4.43;1.90;;;;;;;11.47;69.15;99221.00;5057829;28;20045;-77
2022/09/01 03:09:03;;;;;;;3.53;1.52;;;;;;;11.63;68.36;99212.06;5040787;28;20470;-76
2022/09/01 03:11:33;;;;;;;2.23;2.03;;;;;;;11.74;67.79;99222.41;5075079;28;20405;-76
2022/09/01 03:14:00;;;;;;;2.72;1.80;;;;;;;11.72;67.78;99218.97;5057391;28;20500;-76
2022/09/01 03:16:31;;;;;;;4.50;1.70;;;;;;;11.91;67.16;99224.88;5075165;28;20515;-75
2022/09/01 03:19:02;;;;;;;3.17;1.70;;;;;;;12.02;66.50;99222.13;5074975;28;20556;-75
2022/09/01 03:21:31;;;;;;;3.83;1.73;;;;;;;12.11;66.01;99224.66;5057081;28;20048;-76
2022/09/01 03:24:00;;;;;;;2.20;1.75;;;;;;;12.16;65.37;99227.19;5074654;28;20542;-75
2022/09/01 03:26:29;;;;;;;1.23;1.17;;;;;;;12.22;65.10;99227.13;5074811;28;20052;-75
2022/09/01 03:28:57;;;;;;;1.65;1.55;;;;;;;12.45;64.08;99222.44;5074915;28;20497;-75
2022/09/01 03:31:27;;;;;;;2.72;1.30;;;;;;;12.63;62.98;99226.53;5074638;28;20056;-75
2022/09/01 03:34:02;;;;;;;1.00;0.90;;;;;;;12.69;62.28;99233.41;5074540;28;20060;-76
2022/09/01 03:36:33;;;;;;;2.08;1.30;;;;;;;12.42;62.29;99185.78;5057375;28;20428;-76
2022/09/01 03:39:00;;;;;;;1.65;1.23;;;;;;;12.68;61.95;99231.69;5056386;28;20451;-75
2022/09/01 03:41:30;;;;;;;2.03;1.20;;;;;;;12.81;61.00;99227.97;5074679;28;20049;-75
2022/09/01 03:43:59;;;;;;;1.23;0.80;;;;;;;12.83;60.32;99214.88;5074356;28;20048;-76
2022/09/01 03:46:30;;;;;;;1.70;0.98;;;;;;;12.76;60.37;99185.28;5056775;28;20056;-77
2022/09/01 03:49:06;;;;;;;2.42;1.00;;;;;;;13.10;59.30;99224.91;5056443;28;20044;-76
2022/09/01 03:51:37;;;;;;;2.95;1.27;;;;;;;12.96;59.41;99220.78;5056417;28;20599;-75
2022/09/01 03:54:08;;;;;;;1.50;1.40;;;;;;;13.22;59.11;99221.19;5072079;28;20152;-75
2022/09/01 03:56:38;;;;;;;1.23;1.13;;;;;;;13.17;58.69;99224.78;5074053;28;20067;-76
2022/09/01 03:59:07;;;;;;;2.70;1.58;;;;;;;13.29;59.20;99229.84;5071243;28;20092;-75
2022/09/01 04:01:40;;;;;;;2.10;1.60;;;;;;;13.40;58.60;99206.03;5056098;28;20143;-76
2022/09/01 04:04:08;;;;;;;2.70;1.35;;;;;;;13.71;57.03;99199.31;5073926;28;20049;-76
2022/09/01 04:06:36;;;;;;;1.95;1.13;;;;;;;14.06;56.10;99221.34;5053710;28;20052;-77
2022/09/01 04:09:03;;;;;;;3.70;1.17;;;;;;;14.00;56.02;99228.50;5060924;28;20073;-75
2022/09/01 04:11:32;;;;;;;2.33;1.15;;;;;;;13.92;56.05;99234.78;5058954;28;20045;-75
2022/09/01 04:14:01;;;;;;;2.08;1.08;;;;;;;13.88;56.55;99233.09;5060249;28;20063;-75
2022/09/01 04:19:25;;;;;;;1.92;1.27;;;;;;;13.78;56.93;99228.91;5058991;28;19924;-76
2022/09/01 04:22:01;;;;;;;2.80;1.45;;;;;;;13.86;56.01;99229.63;5037003;28;20053;-79
2022/09/01 04:24:33;;;;;;;1.58;1.15;;;;;;;14.63;54.40;99224.53;5036196;28;20057;-77
2022/09/01 04:27:02;;;;;;;2.63;0.80;;;;;;;15.25;52.93;99229.13;5036227;28;20532;-77
2022/09/01 04:29:30;;;;;;;1.20;1.05;;;;;;;15.22;51.98;99237.13;5036067;28;20206;-79
2022/09/01 04:32:04;;;;;;;2.50;1.02;;;;;;;14.75;52.68;99229.50;5035655;28;20049;-80
2022/09/01 04:34:38;;;;;;;5.80;0.90;;;;;;;14.51;53.28;99237.00;5036280;28;20061;-79
2022/09/01 04:37:13;;;;;;;1.15;0.77;;;;;;;14.20;53.87;99226.31;5035944;28;20049;-78
2022/09/01 04:39:48;;;;;;;3.35;0.63;;;;;;;14.12;54.39;99236.13;5036300;28;20041;-78
2022/09/01 04:42:23;;;;;;;1.17;0.95;;;;;;;14.31;53.21;99194.56;5053860;28;20085;-78
2022/09/01 04:44:52;;;;;;;1.35;1.00;;;;;;;14.80;52.19;99221.47;5035700;28;20076;-78
2022/09/01 04:47:28;;;;;;;1.30;0.85;;;;;;;14.81;51.86;99216.19;5057217;28;20056;-78
2022/09/01 04:50:12;;;;;;;1.92;0.98;;;;;;;14.79;51.96;99222.41;5055772;28;20048;-79
2022/09/01 04:52:44;;;;;;;3.58;0.98;;;;;;;14.69;51.74;99227.88;5079248;28;20056;-80
2022/09/01 04:55:29;;;;;;;0.70;0.70;;;;;;;14.72;51.29;99230.44;5072565;28;20548;-78
2022/09/01 04:57:59;;;;;;;4.13;0.80;;;;;;;14.39;50.33;99194.38;5071125;28;20776;-77
2022/09/01 05:00:31;;;;;;;0.90;0.68;;;;;;;14.67;49.89;99223.53;5073123;28;20113;-77
2022/09/01 05:03:03;;;;;;;1.08;0.50;;;;;;;14.67;49.76;99228.78;5073402;28;20056;-77
2022/09/01 05:05:52;;;;;;;6.13;0.70;;;;;;;14.60;49.54;99224.59;5071343;28;20531;-79
2022/09/01 05:08:22;;;;;;;7.53;1.40;;;;;;;14.54;49.66;99230.84;5072103;28;20056;-79
2022/09/01 05:10:55;;;;;;;1.42;0.80;;;;;;;14.43;49.47;99235.44;5056366;28;20082;-80
2022/09/01 05:13:37;;;;;;;1.40;0.55;;;;;;;14.38;49.70;99238.19;5072173;28;20052;-80
2022/09/01 05:16:11;;;;;;;4.30;1.02;;;;;;;14.29;49.91;99214.75;5029969;28;20053;-81
2022/09/01 05:18:46;;;;;;;2.45;0.63;;;;;;;14.33;49.34;99222.53;5049836;28;20441;-79
2022/09/01 05:21:20;;;;;;;6.25;0.60;;;;;;;13.62;49.17;99152.25;5076670;28;20041;-77
2022/09/01 05:23:50;;;;;;;3.92;1.27;;;;;;;13.95;50.10;99240.84;5081038;28;20045;-79
2022/09/01 05:26:25;;;;;;;3.00;0.90;;;;;;;13.91;50.63;99245.28;5064624;28;20424;-78
2022/09/01 05:28:56;;;;;;;1.65;0.77;;;;;;;13.79;50.91;99235.03;5049084;28;20398;-79
2022/09/01 05:31:27;;;;;;;4.20;0.80;;;;;;;13.39;51.17;99199.94;5037619;28;20491;-79
2022/09/01 05:33:56;;;;;;;1.75;0.95;;;;;;;13.46;51.07;99225.16;5071994;28;20052;-78
2022/09/01 05:36:25;;;;;;;4.60;0.77;;;;;;;13.67;50.99;99246.66;5055510;28;20084;-77
2022/09/01 05:38:55;;;;;;;3.45;0.90;;;;;;;13.67;50.25;99233.53;5054165;28;20055;-77
2022/09/01 05:41:24;;;;;;;1.40;1.30;;;;;;;13.62;50.79;99254.63;5054289;28;20056;-78
2022/09/01 05:43:52;;;;;;;2.78;1.05;;;;;;;13.45;50.74;99228.69;5072497;28;20045;-79
2022/09/01 05:46:26;;;;;;;3.22;1.00;;;;;;;13.48;51.15;99254.84;5054710;28;20053;-77
2022/09/01 05:48:56;;;;;;;3.55;0.93;;;;;;;13.58;50.96;99246.84;5054282;28;20109;-74
2022/09/01 05:51:27;;;;;;;1.77;1.40;;;;;;;13.70;50.90;99247.47;5069838;28;20539;-77
2022/09/01 05:54:26;;;;;;;2.40;1.00;;;;;;;13.79;51.54;99250.78;5072373;28;20049;-76
2022/09/01 05:57:11;;;;;;;4.65;1.08;;;;;;;13.81;51.92;99262.13;5038018;28;20060;-76
2022/09/01 06:00:42;;;;;;;7.68;1.10;;;;;;;13.09;52.75;99182.97;5060990;28;20044;-78
2022/09/01 06:03:13;;;;;;;2.50;0.88;;;;;;;13.39;52.36;99202.56;5037068;28;20110;-78
2022/09/01 06:05:51;;;;;;;1.00;0.90;;;;;;;13.41;52.34;99205.16;5051968;28;20048;-78
2022/09/01 06:08:27;;;;;;;2.33;0.90;;;;;;;13.80;51.96;99248.13;5040184;28;20071;-78
2022/09/01 06:10:55;;;;;;;3.83;0.93;;;;;;;13.89;52.06;99258.44;5053831;28;20056;-79
2022/09/01 06:13:22;;;;;;;6.15;0.85;;;;;;;13.84;51.89;99246.31;5070681;28;20052;-78
2022/09/01 06:15:53;;;;;;;5.13;0.80;;;;;;;13.73;52.04;99239.50;5070389;28;20049;-77
2022/09/01 06:18:20;;;;;;;1.77;1.30;;;;;;;13.81;52.03;99220.13;5056183;28;20098;-79
2022/09/01 06:20:55;;;;;;;2.85;0.85;;;;;;;13.85;51.83;99243.69;5073540;28;20056;-76
2022/09/01 06:23:22;;;;;;;4.10;1.20;;;;;;;13.99;51.81;99253.03;5057293;28;20056;-77
2022/09/01 06:25:52;;;;;;;2.53;1.20;;;;;;;14.21;50.92;99217.53;5057070;28;20056;-77
2022/09/01 06:28:22;;;;;;;3.55;1.30;;;;;;;14.51;50.29;99254.53;5056939;28;20159;-76
2022/09/01 06:30:51;;;;;;;2.58;1.30;;;;;;;14.46;50.70;99240.66;5056946;28;20048;-77
2022/09/01 06:33:23;;;;;;;4.78;1.02;;;;;;;14.29;50.62;99246.28;5057079;28;20110;-78
2022/09/01 06:35:54;;;;;;;6.05;0.88;;;;;;;14.11;51.62;99261.53;5074236;28;20052;-76
2022/09/01 06:38:24;;;;;;;6.25;1.00;;;;;;;14.08;51.81;99264.19;5073656;28;20146;-75
2022/09/01 06:41:00;;;;;;;4.00;0.98;;;;;;;14.01;51.47;99267.00;5056807;28;20644;-77
2022/09/01 06:43:29;;;;;;;1.92;0.90;;;;;;;13.90;51.67;99268.06;5056763;28;20052;-77
2022/09/01 06:46:01;;;;;;;2.85;1.00;;;;;;;13.85;51.51;99255.91;5074435;28;20055;-77
2022/09/01 06:48:29;;;;;;;5.03;1.00;;;;;;;14.12;50.88;99270.25;5056489;28;20424;-77
2022/09/01 06:51:02;;;;;;;3.50;1.63;;;;;;;14.44;49.44;99235.44;5039809;28;20068;-75
2022/09/01 06:53:58;;;;;;;3.38;2.38;;;;;;;14.57;48.80;99233.41;5057784;28;20064;-77
2022/09/01 06:56:32;;;;;;;4.13;1.38;;;;;;;14.80;47.99;99246.03;5032206;28;20063;-77
2022/09/01 06:59:08;;;;;;;4.53;1.40;;;;;;;14.66;47.65;99262.09;5074042;28;20064;-76
2022/09/01 07:01:38;;;;;;;3.25;1.20;;;;;;;14.71;47.20;99264.63;5056627;28;20052;-80
2022/09/01 07:04:06;;;;;;;1.80;0.95;;;;;;;14.64;45.93;99239.41;5046554;28;20149;-77
2022/09/01 07:06:42;;;;;;;4.28;1.30;;;;;;;14.92;45.42;99256.22;5042353;28;20612;-77
2022/09/01 07:09:29;;;;;;;10.10;1.40;;;;;;;15.09;44.81;99266.34;5055857;28;20099;-77
2022/09/01 07:12:24;;;;;;;6.45;1.08;;;;;;;15.06;44.60;99260.31;5058678;28;20567;-77
2022/09/01 07:14:55;;;;;;;5.03;0.90;;;;;;;15.15;44.10;99260.94;5072860;28;20531;-76
2022/09/01 07:17:48;;;;;;;1.52;1.00;;;;;;;15.24;43.87;99266.88;5047953;28;20546;-77
2022/09/01 07:20:21;;;;;;;1.55;0.90;;;;;;;15.12;44.45;99255.78;5053630;28;20508;-76
2022/09/01 07:22:54;;;;;;;3.60;0.70;;;;;;;15.03;44.26;99273.53;5054667;28;20529;-76
2022/09/01 07:25:42;;;;;;;2.08;0.73;;;;;;;15.02;43.87;99237.63;5065861;28;20058;-76
2022/09/01 07:28:34;;;;;;;2.38;0.80;;;;;;;15.24;43.49;99253.72;5048311;28;20551;-76
2022/09/01 07:31:04;;;;;;;4.50;1.50;;;;;;;15.30;43.72;99256.22;5063415;28;20098;-76
2022/09/01 07:33:56;;;;;;;5.10;1.10;;;;;;;15.24;43.30;99267.75;5063340;28;20144;-79
2022/09/01 07:36:48;;;;;;;2.28;0.90;;;;;;;15.25;43.78;99260.72;5031571;28;20156;-77
2022/09/01 07:39:41;;;;;;;;;;;;;;;15.19;44.87;99263.50;5062440;28;20040;-77
2022/09/01 07:42:54;;;;;;;0.90;0.70;;;;;;;15.13;44.44;99267.16;5012511;28;19926;-78
2022/09/01 07:45:50;;;;;;;1.98;0.75;;;;;;;15.00;44.83;99247.31;5053661;28;20057;-78
2022/09/01 07:48:28;;;;;;;1.40;0.70;;;;;;;15.14;44.63;99282.03;5019974;28;20562;-77
2022/09/01 07:51:19;;;;;;;0.73;0.68;;;;;;;15.13;44.82;99281.16;5053082;28;20509;-78
2022/09/01 07:54:06;;;;;;;1.90;0.90;;;;;;;15.40;44.34;99262.09;5052895;28;20052;-76
2022/09/01 07:56:33;;;;;;;4.68;1.33;;;;;;;15.59;43.94;99273.84;5060368;28;20045;-77
2022/09/01 07:59:08;;;;;;;1.80;1.10;;;;;;;15.44;44.04;99264.59;5055982;28;20056;-76
2022/09/01 08:02:17;;;;;;;3.35;1.10;;;;;;;15.18;44.36;99272.28;5040812;28;20056;-77
2022/09/01 08:04:47;;;;;;;3.42;1.08;;;;;;;14.78;44.87;99232.06;5055120;28;20135;-76
2022/09/01 08:07:16;;;;;;;2.25;1.25;;;;;;;15.05;45.08;99258.56;5055435;28;20055;-76
2022/09/01 08:09:43;;;;;;;11.15;1.33;;;;;;;15.30;44.32;99264.09;5055948;28;20044;-77
2022/09/01 08:12:13;;;;;;;4.45;1.13;;;;;;;15.50;44.29;99267.06;5038000;28;20044;-77
2022/09/01 08:14:52;;;;;;;2.72;1.25;;;;;;;15.55;43.72;99249.41;5073094;28;20049;-77
2022/09/01 08:17:40;;;;;;;4.45;1.25;;;;;;;15.61;43.68;99264.16;5039496;28;20109;-77
2022/09/01 08:20:29;;;;;;;3.58;1.20;;;;;;;15.61;43.75;99276.47;5056387;28;20048;-77
2022/09/01 08:23:08;;;;;;;3.25;1.30;;;;;;;15.58;43.56;99280.03;5052706;28;20102;-77
2022/09/01 08:25:40;;;;;;;6.35;1.98;;;;;;;15.43;43.57;99256.75;5061291;28;20052;-77
2022/09/01 08:28:09;;;;;;;3.33;1.23;;;;;;;15.65;43.31;99271.06;5044590;28;20075;-77
2022/09/01 08:30:39;;;;;;;8.05;1.50;;;;;;;15.97;42.84;99272.84;5060714;28;20048;-78
2022/09/01 08:33:10;;;;;;;5.18;1.33;;;;;;;16.31;42.15;99253.44;5052656;28;20082;-76
2022/09/01 08:35:46;;;;;;;5.13;1.23;;;;;;;16.42;41.21;99271.56;5052767;28;20056;-78
2022/09/01 08:38:15;;;;;;;6.15;1.08;;;;;;;16.42;41.17;99278.63;5052228;28;20524;-78
2022/09/01 08:40:51;;;;;;;5.72;1.00;;;;;;;16.22;41.19;99266.91;5047603;28;20052;-78
2022/09/01 08:43:36;;;;;;;4.20;1.15;;;;;;;16.20;41.52;99271.34;5071109;28;20052;-78
2022/09/01 08:46:29;;;;;;;11.93;1.35;;;;;;;15.93;42.07;99268.56;5054580;28;20564;-80
2022/09/01 08:49:22;;;;;;;5.07;1.25;;;;;;;15.97;42.03;99267.59;5051032;28;20084;-79
2022/09/01 08:52:34;;;;;;;2.67;0.93;;;;;;;16.29;41.25;99278.13;5073473;28;20504;-78
2022/09/01 08:55:16;;;;;;;11.40;1.08;;;;;;;16.16;41.03;99219.66;5073538;28;20056;-79
2022/09/01 08:57:50;;;;;;;3.42;1.33;;;;;;;16.53;40.61;99277.38;5073712;28;20135;-80
2022/09/01 09:00:41;;;;;;;5.43;2.10;;;;;;;16.20;40.90;99237.09;5073228;28;20120;-79
2022/09/01 09:03:26;;;;;;;3.80;1.20;;;;;;;16.60;40.64;99267.50;5055197;28;20067;-81
2022/09/01 09:06:19;;;;;;;4.63;0.95;;;;;;;16.51;40.19;99280.97;5055525;28;20163;-78
2022/09/01 09:09:02;;;;;;;11.93;2.95;;;;;;;16.43;40.10;99240.81;5073482;28;20075;-78
2022/09/01 09:11:44;;;;;;;41.92;3.60;;;;;;;16.40;39.76;99291.84;5073473;28;20080;-78
2022/09/01 09:14:28;;;;;;;10.30;2.00;;;;;;;16.29;39.53;99278.13;5073010;28;20053;-80
2022/09/01 09:16:56;;;;;;;5.15;2.60;;;;;;;16.49;39.50;99290.69;5073096;28;20044;-78
2022/09/01 09:19:38;;;;;;;5.97;1.25;;;;;;;16.53;38.99;99242.25;5072471;28;20056;-79
2022/09/01 09:22:09;;;;;;;3.85;1.13;;;;;;;16.76;38.58;99276.69;5072853;28;20471;-80
2022/09/01 09:24:54;;;;;;;3.08;0.77;;;;;;;16.83;38.92;99290.56;5073509;28;20085;-80
2022/09/01 09:27:34;;;;;;;11.40;4.22;;;;;;;16.77;38.94;99290.72;5072912;28;20098;-79
2022/09/01 09:30:30;;;;;;;6.80;2.08;;;;;;;16.80;38.96;99293.31;5073089;28;20076;-78
2022/09/01 09:33:04;;;;;;;9.75;1.95;;;;;;;16.79;38.71;99262.53;5073085;28;20143;-79
2022/09/01 09:35:53;;;;;;;12.45;1.13;;;;;;;16.95;38.02;99284.03;5072589;28;20052;-80
2022/09/01 09:38:31;;;;;;;9.25;0.98;;;;;;;16.71;38.26;99296.19;5070204;28;20044;-78
2022/09/01 09:41:18;;;;;;;11.13;5.53;;;;;;;16.52;38.56;99278.31;5072795;28;20102;-78
2022/09/01 09:44:17;;;;;;;4.80;1.88;;;;;;;16.38;38.32;99285.75;5072695;28;20053;-79
2022/09/01 09:46:46;;;;;;;8.52;1.42;;;;;;;16.61;38.26;99308.81;5072645;28;20153;-78
2022/09/01 09:49:19;;;;;;;3.40;0.77;;;;;;;16.66;38.05;99317.41;5069141;28;20088;-77
2022/09/01 09:52:04;;;;;;;;;;;;;;;16.50;38.88;99317.03;5073157;28;20540;-77
2022/09/01 09:54:34;;;;;;;7.88;1.48;;;;;;;16.45;37.96;99315.44;5058788;28;19924;-77
2022/09/01 09:57:10;;;;;;;7.27;1.73;;;;;;;16.39;37.90;99311.22;5076560;28;20044;-77
2022/09/01 09:59:43;;;;;;;6.20;1.98;;;;;;;16.41;37.78;99321.69;5075310;28;20298;-78
2022/09/01 10:02:54;;;;;;;2.20;1.33;;;;;;;16.56;38.07;99329.16;5075051;28;20061;-78
2022/09/01 10:05:36;;;;;;;7.68;1.20;;;;;;;16.43;38.34;99323.38;5071928;28;20143;-79
2022/09/01 10:08:33;;;;;;;3.72;1.17;;;;;;;16.47;38.47;99325.00;5059166;28;20079;-77
2022/09/01 10:11:03;;;;;;;18.52;8.40;;;;;;;16.51;38.24;99312.63;5077122;28;20054;-79
2022/09/01 10:13:34;;;;;;;20.50;8.60;;;;;;;16.69;38.01;99335.81;5077497;28;20052;-78
2022/09/01 10:16:23;;;;;;;3.03;2.22;;;;;;;16.93;37.71;99322.81;5062390;28;20079;-78
2022/09/01 10:18:59;;;;;;;2.53;1.58;;;;;;;17.20;37.27;99314.00;5084373;28;20049;-78
2022/09/01 10:21:29;;;;;;;10.32;2.20;;;;;;;17.23;36.82;99305.13;5084291;28;20496;-78
2022/09/01 10:24:00;;;;;;;4.90;2.92;;;;;;;16.82;37.59;99309.97;5078490;28;20067;-78
2022/09/01 10:26:51;;;;;;;9.05;2.40;;;;;;;16.57;37.83;99313.28;5058675;28;20068;-78
2022/09/01 10:29:33;;;;;;;6.82;2.67;;;;;;;16.24;38.05;99296.72;5075694;28;20044;-79
2022/09/01 10:32:12;;;;;;;11.65;5.00;;;;;;;16.43;38.16;99335.69;5058305;28;20048;-78
2022/09/01 10:35:01;;;;;;;11.13;3.88;;;;;;;16.13;38.07;99315.47;5076025;28;20071;-79
2022/09/01 10:37:30;;;;;;;10.52;5.30;;;;;;;16.09;38.06;99320.81;5075913;28;20080;-77
2022/09/01 10:40:13;;;;;;;8.13;3.70;;;;;;;16.69;37.65;99341.09;5075976;28;20143;-78
2022/09/01 10:42:43;;;;;;;10.93;4.97;;;;;;;17.04;36.58;99304.00;5076125;28;20059;-79
2022/09/01 10:45:33;;;;;;;13.88;2.55;;;;;;;17.13;36.24;99330.94;5075676;28;20504;-78
2022/09/01 10:48:19;;;;;;;8.83;3.93;;;;;;;17.41;36.09;99330.06;5075773;28;20056;-78
2022/09/01 10:51:11;;;;;;;10.10;5.13;;;;;;;17.44;36.31;99337.00;5075363;28;20470;-78
2022/09/01 10:53:54;;;;;;;6.97;4.45;;;;;;;17.16;36.62;99343.19;5075549;28;20123;-78
2022/09/01 10:56:42;;;;;;;11.90;4.88;;;;;;;17.11;36.97;99331.91;5057489;28;20120;-78
2022/09/01 10:59:27;;;;;;;10.03;3.50;;;;;;;17.04;37.32;99346.22;5075025;28;20052;-78
2022/09/01 11:02:14;;;;;;;8.80;3.35;;;;;;;16.92;37.58;99336.91;5074363;28;20052;-78
2022/09/01 11:04:53;;;;;;;15.68;7.72;;;;;;;17.07;37.49;99330.28;5074362;28;20048;-81
2022/09/01 11:07:22;;;;;;;18.50;8.40;;;;;;;16.89;37.45;99337.88;5072995;28;20056;-81
2022/09/01 11:10:18;;;;;;;26.85;14.50;;;;;;;16.61;37.61;99310.59;5064915;28;20053;-78
2022/09/01 11:13:28;;;;;;;20.83;10.25;;;;;;;16.76;37.77;99345.25;5074214;28;20048;-79
2022/09/01 11:16:24;;;;;;;6.85;2.83;;;;;;;16.92;37.88;99352.72;5056497;28;20082;-78
2022/09/01 11:19:42;;;;;;;14.13;7.75;;;;;;;17.11;37.61;99339.84;5039836;28;20068;-79
2022/09/01 11:22:29;;;;;;;16.75;5.32;;;;;;;17.25;37.09;99336.75;5076190;28;20048;-83
2022/09/01 11:25:27;;;;;;;9.57;3.75;;;;;;;17.27;36.59;99334.91;5075348;28;20052;-79
2022/09/01 11:28:18;;;;;;;12.48;5.95;;;;;;;17.53;36.30;99328.78;4995057;28;20044;-80
2022/09/01 11:31:05;;;;;;;16.88;4.78;;;;;;;17.30;36.78;99337.47;5057861;28;20079;-84
2022/09/01 11:33:43;;;;;;;12.98;6.57;;;;;;;17.10;37.16;99340.72;5075340;28;20476;-79
2022/09/01 11:36:35;;;;;;;5.35;3.38;;;;;;;17.00;36.37;99300.59;5076255;28;20048;-80
2022/09/01 11:39:28;;;;;;;9.20;2.50;;;;;;;17.22;36.19;99345.63;5072100;28;20102;-80
2022/09/01 11:42:03;;;;;;;5.68;2.13;;;;;;;17.00;36.49;99342.81;5076442;28;20057;-79
2022/09/01 11:44:41;;;;;;;9.00;1.52;;;;;;;16.86;36.00;99337.94;5074030;28;20189;-80
2022/09/01 11:47:30;;;;;;;5.75;1.67;;;;;;;16.42;36.08;99302.34;5075793;28;20187;-81
2022/09/01 11:50:07;;;;;;;12.25;1.77;;;;;;;16.53;36.42;99330.09;5077528;28;20055;-79
2022/09/01 11:52:37;;;;;;;3.13;0.80;;;;;;;16.08;36.10;99224.28;5060560;28;20055;-82
2022/09/01 11:55:10;;;;;;;7.75;2.58;;;;;;;16.62;35.57;99284.16;5063136;28;20048;-79
2022/09/01 11:57:40;;;;;;;;;;;;;;;16.90;35.88;99322.91;5059989;28;20052;-82
2022/09/01 12:00:25;;;;;;;29.42;3.28;;;;;;;16.41;35.03;99271.59;5052484;28;20313;-80
2022/09/01 12:03:01;;;;;;;6.90;2.90;;;;;;;16.46;35.65;99323.28;5050133;28;20049;-81
2022/09/01 12:05:37;;;;;;;8.55;3.20;;;;;;;15.99;35.57;99270.19;5053717;28;20542;-79
2022/09/01 12:08:21;;;;;;;11.57;4.43;;;;;;;15.55;35.77;99198.50;5052944;28;20075;-81
2022/09/01 12:11:10;;;;;;;8.73;3.20;;;;;;;15.72;36.40;99251.63;5052221;28;20080;-83
2022/09/01 12:14:03;;;;;;;10.40;2.85;;;;;;;15.78;36.86;99297.97;5035168;28;20045;-78
2022/09/01 12:16:41;;;;;;;4.90;2.35;;;;;;;16.04;36.86;99315.69;5044320;28;20071;-80
2022/09/01 12:19:34;;;;;;;3.88;1.40;;;;;;;15.90;37.41;99331.88;5045234;28;20531;-81